sensor_id;sensor_type;location;lat;lon;timestamp;P1;durP1;ratioP1;P2;durP2;ratioP2
34832;SDS011;55941;50.800;4.342;2022-11-15T00:00:53;35.53;;;19.42;;
34832;SDS011;55941;50.800;4.342;2022-11-15T00:03:20;26.42;;;18.50;;
34832;SDS011;55941;50.800;4.342;2022-11-15T00:05:47;28.70;;;19.73;;
34832;SDS011;55941;50.800;4.342;2022-11-15T00:08:13;30.20;;;19.00;;
34832;SDS011;55941;50.800;4.342;2022-11-15T00:10:39;34.38;;;20.10;;
34832;SDS011;55941;50.800;4.342;2022-11-15T00:13:09;29.33;;;18.50;;
34832;SDS011;55941;50.800;4.342;2022-11-15T00:15:37;33.65;;;19.83;;
34832;SDS011;55941;50.800;4.342;2022-11-15T00:18:03;28.88;;;19.23;;
34832;SDS011;55941;50.800;4.342;2022-11-15T00:20:30;23.15;;;18.27;;
34832;SDS011;55941;50.800;4.342;2022-11-15T00:22:58;33.60;;;18.75;;
34832;SDS011;55941;50.800;4.342;2022-11-15T00:25:24;37.67;;;20.40;;
34832;SDS011;55941;50.800;4.342;2022-11-15T00:27:50;36.20;;;19.90;;
34832;SDS011;55941;50.800;4.342;2022-11-15T00:30:20;32.47;;;20.08;;
34832;SDS011;55941;50.800;4.342;2022-11-15T00:32:46;32.40;;;20.23;;
34832;SDS011;55941;50.800;4.342;2022-11-15T00:35:13;33.60;;;21.30;;
34832;SDS011;55941;50.800;4.342;2022-11-15T00:37:39;33.35;;;20.67;;
34832;SDS011;55941;50.800;4.342;2022-11-15T00:40:05;38.88;;;21.45;;
34832;SDS011;55941;50.800;4.342;2022-11-15T00:42:31;41.08;;;21.10;;
34832;SDS011;55941;50.800;4.342;2022-11-15T00:44:58;38.47;;;21.80;;
34832;SDS011;55941;50.800;4.342;2022-11-15T00:47:25;36.85;;;22.10;;
34832;SDS011;55941;50.800;4.342;2022-11-15T00:49:51;38.50;;;23.17;;
34832;SDS011;55941;50.800;4.342;2022-11-15T00:52:16;39.15;;;23.23;;
34832;SDS011;55941;50.800;4.342;2022-11-15T00:54:42;40.38;;;25.45;;
34832;SDS011;55941;50.800;4.342;2022-11-15T00:57:08;43.70;;;25.17;;
34832;SDS011;55941;50.800;4.342;2022-11-15T00:59:34;47.10;;;25.00;;
34832;SDS011;55941;50.800;4.342;2022-11-15T01:02:00;42.17;;;25.90;;
34832;SDS011;55941;50.800;4.342;2022-11-15T01:04:26;38.85;;;24.15;;
34832;SDS011;55941;50.800;4.342;2022-11-15T01:06:52;51.78;;;25.63;;
34832;SDS011;55941;50.800;4.342;2022-11-15T01:09:19;39.85;;;24.13;;
34832;SDS011;55941;50.800;4.342;2022-11-15T01:11:44;43.70;;;24.75;;
34832;SDS011;55941;50.800;4.342;2022-11-15T01:14:10;43.88;;;23.52;;
34832;SDS011;55941;50.800;4.342;2022-11-15T01:16:36;40.38;;;22.90;;
34832;SDS011;55941;50.800;4.342;2022-11-15T01:19:02;44.10;;;23.58;;
34832;SDS011;55941;50.800;4.342;2022-11-15T01:21:28;44.53;;;23.35;;
34832;SDS011;55941;50.800;4.342;2022-11-15T01:23:54;40.05;;;23.02;;
34832;SDS011;55941;50.800;4.342;2022-11-15T01:26:21;43.33;;;24.48;;
34832;SDS011;55941;50.800;4.342;2022-11-15T01:28:48;37.28;;;22.58;;
34832;SDS011;55941;50.800;4.342;2022-11-15T01:31:15;35.70;;;22.67;;
34832;SDS011;55941;50.800;4.342;2022-11-15T01:33:44;37.50;;;21.95;;
34832;SDS011;55941;50.800;4.342;2022-11-15T01:36:12;38.78;;;21.02;;
34832;SDS011;55941;50.800;4.342;2022-11-15T01:38:40;37.25;;;22.35;;
34832;SDS011;55941;50.800;4.342;2022-11-15T01:41:06;31.33;;;19.52;;
34832;SDS011;55941;50.800;4.342;2022-11-15T01:43:39;35.20;;;19.88;;
34832;SDS011;55941;50.800;4.342;2022-11-15T01:46:22;34.17;;;19.23;;
34832;SDS011;55941;50.800;4.342;2022-11-15T01:48:57;30.75;;;19.13;;
34832;SDS011;55941;50.800;4.342;2022-11-15T01:51:27;29.33;;;18.30;;
34832;SDS011;55941;50.800;4.342;2022-11-15T01:53:59;35.55;;;18.00;;
34832;SDS011;55941;50.800;4.342;2022-11-15T01:56:29;31.48;;;17.02;;
34832;SDS011;55941;50.800;4.342;2022-11-15T01:58:58;31.38;;;17.30;;
34832;SDS011;55941;50.800;4.342;2022-11-15T02:01:28;28.00;;;16.83;;
34832;SDS011;55941;50.800;4.342;2022-11-15T02:04:02;26.95;;;16.42;;
34832;SDS011;55941;50.800;4.342;2022-11-15T02:06:35;29.55;;;15.65;;
34832;SDS011;55941;50.800;4.342;2022-11-15T02:09:01;26.33;;;16.40;;
34832;SDS011;55941;50.800;4.342;2022-11-15T02:11:27;31.83;;;15.23;;
34832;SDS011;55941;50.800;4.342;2022-11-15T02:13:54;25.05;;;14.93;;
34832;SDS011;55941;50.800;4.342;2022-11-15T02:16:35;26.20;;;15.50;;
34832;SDS011;55941;50.800;4.342;2022-11-15T02:30:51;24.92;;;14.70;;
34832;SDS011;55941;50.800;4.342;2022-11-15T02:36:59;23.60;;;14.20;;
34832;SDS011;55941;50.800;4.342;2022-11-15T02:44:14;22.98;;;13.98;;
34832;SDS011;55941;50.800;4.342;2022-11-15T02:46:57;24.20;;;13.70;;
34832;SDS011;55941;50.800;4.342;2022-11-15T02:49:39;19.90;;;13.20;;
34832;SDS011;55941;50.800;4.342;2022-11-15T02:52:14;26.00;;;14.45;;
34832;SDS011;55941;50.800;4.342;2022-11-15T02:54:41;25.38;;;13.75;;
34832;SDS011;55941;50.800;4.342;2022-11-15T02:57:07;27.02;;;13.68;;
34832;SDS011;55941;50.800;4.342;2022-11-15T03:02:15;24.90;;;12.90;;
34832;SDS011;55941;50.800;4.342;2022-11-15T03:05:12;26.02;;;12.38;;
34832;SDS011;55941;50.800;4.342;2022-11-15T03:13:24;18.25;;;10.88;;
34832;SDS011;55941;50.800;4.342;2022-11-15T03:21:51;16.45;;;10.25;;
34832;SDS011;55941;50.800;4.342;2022-11-15T03:24:20;27.10;;;11.07;;
34832;SDS011;55941;50.800;4.342;2022-11-15T03:26:47;17.08;;;9.93;;
34832;SDS011;55941;50.800;4.342;2022-11-15T03:29:16;17.67;;;9.65;;
34832;SDS011;55941;50.800;4.342;2022-11-15T03:31:46;23.75;;;10.02;;
34832;SDS011;55941;50.800;4.342;2022-11-15T03:34:25;19.67;;;8.93;;
34832;SDS011;55941;50.800;4.342;2022-11-15T03:36:59;16.85;;;9.02;;
34832;SDS011;55941;50.800;4.342;2022-11-15T03:39:26;15.18;;;7.40;;
34832;SDS011;55941;50.800;4.342;2022-11-15T03:50:12;18.88;;;7.75;;
34832;SDS011;55941;50.800;4.342;2022-11-15T03:52:41;20.52;;;7.55;;
34832;SDS011;55941;50.800;4.342;2022-11-15T03:55:11;15.25;;;7.03;;
34832;SDS011;55941;50.800;4.342;2022-11-15T03:57:42;13.32;;;6.10;;
34832;SDS011;55941;50.800;4.342;2022-11-15T04:00:09;13.10;;;6.50;;
34832;SDS011;55941;50.800;4.342;2022-11-15T04:02:36;12.43;;;7.05;;
34832;SDS011;55941;50.800;4.342;2022-11-15T04:05:02;14.13;;;6.40;;
34832;SDS011;55941;50.800;4.342;2022-11-15T04:07:28;16.58;;;7.30;;
34832;SDS011;55941;50.800;4.342;2022-11-15T04:09:53;15.10;;;6.40;;
34832;SDS011;55941;50.800;4.342;2022-11-15T04:12:35;17.15;;;6.13;;
34832;SDS011;55941;50.800;4.342;2022-11-15T04:15:04;23.90;;;6.90;;
34832;SDS011;55941;50.800;4.342;2022-11-15T04:20:00;15.68;;;6.93;;
34832;SDS011;55941;50.800;4.342;2022-11-15T04:22:45;14.32;;;6.72;;
34832;SDS011;55941;50.800;4.342;2022-11-15T04:25:30;14.35;;;5.88;;
34832;SDS011;55941;50.800;4.342;2022-11-15T04:27:56;16.88;;;6.68;;
34832;SDS011;55941;50.800;4.342;2022-11-15T04:30:22;14.23;;;6.07;;
34832;SDS011;55941;50.800;4.342;2022-11-15T04:32:48;20.13;;;6.10;;
34832;SDS011;55941;50.800;4.342;2022-11-15T04:35:14;19.65;;;6.07;;
34832;SDS011;55941;50.800;4.342;2022-11-15T04:37:39;18.20;;;6.25;;
34832;SDS011;55941;50.800;4.342;2022-11-15T04:40:05;17.67;;;6.13;;
34832;SDS011;55941;50.800;4.342;2022-11-15T04:42:32;16.30;;;6.22;;
34832;SDS011;55941;50.800;4.342;2022-11-15T04:44:58;10.98;;;5.20;;
34832;SDS011;55941;50.800;4.342;2022-11-15T04:47:23;12.73;;;6.15;;
34832;SDS011;55941;50.800;4.342;2022-11-15T04:49:49;10.98;;;5.13;;
34832;SDS011;55941;50.800;4.342;2022-11-15T04:52:14;16.20;;;5.70;;
34832;SDS011;55941;50.800;4.342;2022-11-15T04:54:40;17.73;;;5.10;;
34832;SDS011;55941;50.800;4.342;2022-11-15T04:57:07;11.27;;;4.95;;
34832;SDS011;55941;50.800;4.342;2022-11-15T04:59:35;12.00;;;4.47;;
34832;SDS011;55941;50.800;4.342;2022-11-15T05:02:01;15.85;;;4.50;;
34832;SDS011;55941;50.800;4.342;2022-11-15T05:04:27;13.15;;;4.45;;
34832;SDS011;55941;50.800;4.342;2022-11-15T05:06:53;12.10;;;4.28;;
34832;SDS011;55941;50.800;4.342;2022-11-15T05:09:19;14.20;;;4.20;;
34832;SDS011;55941;50.800;4.342;2022-11-15T05:11:46;9.35;;;3.75;;
34832;SDS011;55941;50.800;4.342;2022-11-15T05:14:12;9.60;;;3.55;;
34832;SDS011;55941;50.800;4.342;2022-11-15T05:16:39;10.77;;;3.85;;
34832;SDS011;55941;50.800;4.342;2022-11-15T05:19:05;13.00;;;4.40;;
34832;SDS011;55941;50.800;4.342;2022-11-15T05:21:31;14.07;;;4.03;;
34832;SDS011;55941;50.800;4.342;2022-11-15T05:23:57;16.00;;;3.92;;
34832;SDS011;55941;50.800;4.342;2022-11-15T05:26:23;18.30;;;4.20;;
34832;SDS011;55941;50.800;4.342;2022-11-15T05:28:53;7.10;;;3.55;;
34832;SDS011;55941;50.800;4.342;2022-11-15T05:31:23;15.85;;;3.63;;
34832;SDS011;55941;50.800;4.342;2022-11-15T05:33:50;18.27;;;4.13;;
34832;SDS011;55941;50.800;4.342;2022-11-15T05:38:59;17.08;;;4.70;;
34832;SDS011;55941;50.800;4.342;2022-11-15T05:41:46;10.32;;;3.80;;
34832;SDS011;55941;50.800;4.342;2022-11-15T05:44:18;7.40;;;3.15;;
34832;SDS011;55941;50.800;4.342;2022-11-15T05:46:46;15.35;;;4.20;;
34832;SDS011;55941;50.800;4.342;2022-11-15T05:49:15;10.35;;;3.72;;
34832;SDS011;55941;50.800;4.342;2022-11-15T05:51:44;15.40;;;4.15;;
34832;SDS011;55941;50.800;4.342;2022-11-15T05:54:14;13.98;;;3.97;;
34832;SDS011;55941;50.800;4.342;2022-11-15T05:56:41;17.83;;;4.40;;
34832;SDS011;55941;50.800;4.342;2022-11-15T05:59:09;12.65;;;3.90;;
34832;SDS011;55941;50.800;4.342;2022-11-15T06:01:36;12.60;;;3.95;;
34832;SDS011;55941;50.800;4.342;2022-11-15T06:04:02;11.95;;;4.20;;
34832;SDS011;55941;50.800;4.342;2022-11-15T06:06:28;9.85;;;3.63;;
34832;SDS011;55941;50.800;4.342;2022-11-15T06:08:54;11.20;;;4.22;;
34832;SDS011;55941;50.800;4.342;2022-11-15T06:11:19;10.18;;;3.83;;
34832;SDS011;55941;50.800;4.342;2022-11-15T06:13:45;15.27;;;3.60;;
34832;SDS011;55941;50.800;4.342;2022-11-15T06:16:11;13.63;;;3.45;;
34832;SDS011;55941;50.800;4.342;2022-11-15T06:18:37;14.32;;;4.00;;
34832;SDS011;55941;50.800;4.342;2022-11-15T06:21:03;12.25;;;3.10;;
34832;SDS011;55941;50.800;4.342;2022-11-15T06:23:31;16.55;;;3.38;;
34832;SDS011;55941;50.800;4.342;2022-11-15T06:25:58;16.20;;;3.78;;
34832;SDS011;55941;50.800;4.342;2022-11-15T06:28:24;13.07;;;3.33;;
34832;SDS011;55941;50.800;4.342;2022-11-15T06:31:03;10.10;;;3.88;;
34832;SDS011;55941;50.800;4.342;2022-11-15T06:33:33;9.95;;;3.17;;
34832;SDS011;55941;50.800;4.342;2022-11-15T06:36:00;9.82;;;3.05;;
34832;SDS011;55941;50.800;4.342;2022-11-15T06:38:27;7.75;;;3.13;;
34832;SDS011;55941;50.800;4.342;2022-11-15T06:40:52;13.90;;;3.53;;
34832;SDS011;55941;50.800;4.342;2022-11-15T06:43:18;8.80;;;2.97;;
34832;SDS011;55941;50.800;4.342;2022-11-15T06:45:44;13.35;;;3.00;;
34832;SDS011;55941;50.800;4.342;2022-11-15T06:48:10;12.57;;;3.20;;
34832;SDS011;55941;50.800;4.342;2022-11-15T06:50:36;16.83;;;3.40;;
34832;SDS011;55941;50.800;4.342;2022-11-15T06:53:05;12.45;;;3.13;;
34832;SDS011;55941;50.800;4.342;2022-11-15T06:55:31;12.55;;;3.70;;
34832;SDS011;55941;50.800;4.342;2022-11-15T06:57:56;14.38;;;3.45;;
34832;SDS011;55941;50.800;4.342;2022-11-15T07:00:22;10.80;;;3.15;;
34832;SDS011;55941;50.800;4.342;2022-11-15T07:02:48;9.27;;;3.33;;
34832;SDS011;55941;50.800;4.342;2022-11-15T07:05:14;9.93;;;3.47;;
34832;SDS011;55941;50.800;4.342;2022-11-15T07:07:40;11.85;;;3.53;;
34832;SDS011;55941;50.800;4.342;2022-11-15T07:10:06;11.27;;;3.65;;
34832;SDS011;55941;50.800;4.342;2022-11-15T07:12:33;13.80;;;3.63;;
34832;SDS011;55941;50.800;4.342;2022-11-15T07:14:59;9.75;;;3.15;;
34832;SDS011;55941;50.800;4.342;2022-11-15T07:17:24;11.35;;;3.80;;
34832;SDS011;55941;50.800;4.342;2022-11-15T07:19:50;10.00;;;4.20;;
34832;SDS011;55941;50.800;4.342;2022-11-15T07:22:15;13.57;;;3.53;;
34832;SDS011;55941;50.800;4.342;2022-11-15T07:24:41;10.70;;;3.20;;
34832;SDS011;55941;50.800;4.342;2022-11-15T07:27:07;12.43;;;3.30;;
34832;SDS011;55941;50.800;4.342;2022-11-15T07:29:33;8.77;;;3.60;;
34832;SDS011;55941;50.800;4.342;2022-11-15T07:31:59;12.20;;;3.58;;
34832;SDS011;55941;50.800;4.342;2022-11-15T07:34:24;12.35;;;3.83;;
34832;SDS011;55941;50.800;4.342;2022-11-15T07:36:50;14.88;;;3.75;;
34832;SDS011;55941;50.800;4.342;2022-11-15T07:39:16;15.82;;;4.05;;
34832;SDS011;55941;50.800;4.342;2022-11-15T07:41:43;12.18;;;3.88;;
34832;SDS011;55941;50.800;4.342;2022-11-15T07:44:09;9.57;;;4.03;;
34832;SDS011;55941;50.800;4.342;2022-11-15T07:46:35;12.18;;;6.00;;
34832;SDS011;55941;50.800;4.342;2022-11-15T07:49:01;18.48;;;5.95;;
34832;SDS011;55941;50.800;4.342;2022-11-15T07:51:27;12.75;;;6.57;;
34832;SDS011;55941;50.800;4.342;2022-11-15T07:53:53;17.08;;;6.78;;
34832;SDS011;55941;50.800;4.342;2022-11-15T07:56:19;17.10;;;6.70;;
34832;SDS011;55941;50.800;4.342;2022-11-15T07:58:45;16.17;;;5.28;;
34832;SDS011;55941;50.800;4.342;2022-11-15T08:01:12;16.73;;;4.28;;
34832;SDS011;55941;50.800;4.342;2022-11-15T08:03:38;12.32;;;3.90;;
34832;SDS011;55941;50.800;4.342;2022-11-15T08:06:04;38.72;;;4.03;;
34832;SDS011;55941;50.800;4.342;2022-11-15T08:08:30;13.25;;;4.13;;
34832;SDS011;55941;50.800;4.342;2022-11-15T08:11:00;13.38;;;3.47;;
34832;SDS011;55941;50.800;4.342;2022-11-15T08:13:26;7.82;;;2.92;;
34832;SDS011;55941;50.800;4.342;2022-11-15T08:15:56;15.48;;;3.45;;
34832;SDS011;55941;50.800;4.342;2022-11-15T08:18:23;7.50;;;2.78;;
34832;SDS011;55941;50.800;4.342;2022-11-15T08:20:49;14.57;;;3.70;;
34832;SDS011;55941;50.800;4.342;2022-11-15T08:23:15;11.40;;;3.17;;
34832;SDS011;55941;50.800;4.342;2022-11-15T08:25:41;17.20;;;3.42;;
34832;SDS011;55941;50.800;4.342;2022-11-15T08:28:07;9.57;;;3.13;;
34832;SDS011;55941;50.800;4.342;2022-11-15T08:30:35;10.68;;;3.65;;
34832;SDS011;55941;50.800;4.342;2022-11-15T08:33:03;12.80;;;3.10;;
34832;SDS011;55941;50.800;4.342;2022-11-15T08:35:28;11.85;;;2.65;;
34832;SDS011;55941;50.800;4.342;2022-11-15T08:37:54;9.27;;;2.80;;
34832;SDS011;55941;50.800;4.342;2022-11-15T08:40:20;10.65;;;2.60;;
34832;SDS011;55941;50.800;4.342;2022-11-15T08:42:46;9.55;;;2.67;;
34832;SDS011;55941;50.800;4.342;2022-11-15T08:45:12;8.80;;;2.28;;
34832;SDS011;55941;50.800;4.342;2022-11-15T08:47:39;8.75;;;2.17;;
34832;SDS011;55941;50.800;4.342;2022-11-15T08:50:05;13.68;;;1.98;;
34832;SDS011;55941;50.800;4.342;2022-11-15T08:52:32;5.55;;;1.80;;
34832;SDS011;55941;50.800;4.342;2022-11-15T08:54:58;11.60;;;2.28;;
34832;SDS011;55941;50.800;4.342;2022-11-15T08:57:24;14.25;;;3.20;;
34832;SDS011;55941;50.800;4.342;2022-11-15T08:59:53;12.32;;;2.45;;
34832;SDS011;55941;50.800;4.342;2022-11-15T09:02:19;12.05;;;2.33;;
34832;SDS011;55941;50.800;4.342;2022-11-15T09:04:45;11.80;;;2.30;;
34832;SDS011;55941;50.800;4.342;2022-11-15T09:07:11;9.68;;;2.38;;
34832;SDS011;55941;50.800;4.342;2022-11-15T09:09:38;10.77;;;2.38;;
34832;SDS011;55941;50.800;4.342;2022-11-15T09:12:04;9.95;;;2.42;;
34832;SDS011;55941;50.800;4.342;2022-11-15T09:14:31;12.73;;;2.22;;
34832;SDS011;55941;50.800;4.342;2022-11-15T09:16:57;19.00;;;2.83;;
34832;SDS011;55941;50.800;4.342;2022-11-15T09:19:23;7.88;;;2.17;;
34832;SDS011;55941;50.800;4.342;2022-11-15T09:21:50;11.13;;;1.95;;
34832;SDS011;55941;50.800;4.342;2022-11-15T09:24:16;9.30;;;1.90;;
34832;SDS011;55941;50.800;4.342;2022-11-15T09:26:43;10.30;;;2.35;;
34832;SDS011;55941;50.800;4.342;2022-11-15T09:29:09;13.05;;;1.92;;
34832;SDS011;55941;50.800;4.342;2022-11-15T09:31:35;12.05;;;2.30;;
34832;SDS011;55941;50.800;4.342;2022-11-15T09:34:01;13.25;;;2.33;;
34832;SDS011;55941;50.800;4.342;2022-11-15T09:36:26;12.68;;;2.38;;
34832;SDS011;55941;50.800;4.342;2022-11-15T09:38:52;9.32;;;2.05;;
34832;SDS011;55941;50.800;4.342;2022-11-15T09:47:05;8.32;;;1.98;;
34832;SDS011;55941;50.800;4.342;2022-11-15T09:49:58;11.02;;;2.42;;
34832;SDS011;55941;50.800;4.342;2022-11-15T09:52:26;10.07;;;2.00;;
34832;SDS011;55941;50.800;4.342;2022-11-15T09:54:53;12.63;;;2.17;;
34832;SDS011;55941;50.800;4.342;2022-11-15T09:57:21;17.35;;;2.00;;
34832;SDS011;55941;50.800;4.342;2022-11-15T10:00:10;12.82;;;2.28;;
34832;SDS011;55941;50.800;4.342;2022-11-15T10:03:06;8.60;;;2.13;;
34832;SDS011;55941;50.800;4.342;2022-11-15T10:05:42;12.93;;;1.92;;
34832;SDS011;55941;50.800;4.342;2022-11-15T10:13:30;11.02;;;2.22;;
34832;SDS011;55941;50.800;4.342;2022-11-15T10:15:59;9.23;;;1.85;;
34832;SDS011;55941;50.800;4.342;2022-11-15T10:18:43;12.55;;;2.10;;
34832;SDS011;55941;50.800;4.342;2022-11-15T10:21:29;12.45;;;2.22;;
34832;SDS011;55941;50.800;4.342;2022-11-15T10:24:19;11.60;;;1.85;;
34832;SDS011;55941;50.800;4.342;2022-11-15T10:26:48;13.15;;;1.70;;
34832;SDS011;55941;50.800;4.342;2022-11-15T10:29:21;15.68;;;2.20;;
34832;SDS011;55941;50.800;4.342;2022-11-15T10:31:48;11.93;;;2.28;;
34832;SDS011;55941;50.800;4.342;2022-11-15T10:34:15;13.50;;;2.28;;
34832;SDS011;55941;50.800;4.342;2022-11-15T10:36:46;14.52;;;1.92;;
34832;SDS011;55941;50.800;4.342;2022-11-15T10:39:19;18.50;;;2.10;;
34832;SDS011;55941;50.800;4.342;2022-11-15T10:41:45;17.13;;;2.65;;
34832;SDS011;55941;50.800;4.342;2022-11-15T10:49:20;7.85;;;2.17;;
34832;SDS011;55941;50.800;4.342;2022-11-15T10:52:02;11.57;;;2.10;;
34832;SDS011;55941;50.800;4.342;2022-11-15T10:54:35;26.38;;;2.42;;
34832;SDS011;55941;50.800;4.342;2022-11-15T10:57:05;21.90;;;2.40;;
34832;SDS011;55941;50.800;4.342;2022-11-15T10:59:37;10.27;;;2.22;;
34832;SDS011;55941;50.800;4.342;2022-11-15T11:04:57;14.57;;;2.33;;
34832;SDS011;55941;50.800;4.342;2022-11-15T11:07:28;13.75;;;2.10;;
34832;SDS011;55941;50.800;4.342;2022-11-15T11:09:59;13.55;;;1.98;;
34832;SDS011;55941;50.800;4.342;2022-11-15T11:12:32;11.13;;;1.17;;
34832;SDS011;55941;50.800;4.342;2022-11-15T11:14:59;13.48;;;1.92;;
34832;SDS011;55941;50.800;4.342;2022-11-15T11:20:25;11.80;;;2.15;;
34832;SDS011;55941;50.800;4.342;2022-11-15T11:25:52;10.70;;;1.80;;
34832;SDS011;55941;50.800;4.342;2022-11-15T11:31:29;7.25;;;2.00;;
34832;SDS011;55941;50.800;4.342;2022-11-15T11:36:55;13.18;;;1.60;;
34832;SDS011;55941;50.800;4.342;2022-11-15T11:45:18;11.02;;;1.75;;
34832;SDS011;55941;50.800;4.342;2022-11-15T11:48:20;10.68;;;1.77;;
34832;SDS011;55941;50.800;4.342;2022-11-15T11:51:07;9.07;;;1.90;;
34832;SDS011;55941;50.800;4.342;2022-11-15T11:53:39;9.57;;;2.10;;
34832;SDS011;55941;50.800;4.342;2022-11-15T11:56:22;14.48;;;1.90;;
34832;SDS011;55941;50.800;4.342;2022-11-15T11:58:52;6.57;;;1.70;;
34832;SDS011;55941;50.800;4.342;2022-11-15T12:01:26;12.65;;;1.92;;
34832;SDS011;55941;50.800;4.342;2022-11-15T12:04:08;12.32;;;1.60;;
34832;SDS011;55941;50.800;4.342;2022-11-15T12:14:42;11.18;;;2.90;;
34832;SDS011;55941;50.800;4.342;2022-11-15T12:17:12;11.55;;;3.03;;
34832;SDS011;55941;50.800;4.342;2022-11-15T12:19:39;14.32;;;3.58;;
34832;SDS011;55941;50.800;4.342;2022-11-15T12:24:54;15.27;;;5.30;;
34832;SDS011;55941;50.800;4.342;2022-11-15T12:27:33;16.60;;;5.40;;
34832;SDS011;55941;50.800;4.342;2022-11-15T12:30:16;17.85;;;4.78;;
34832;SDS011;55941;50.800;4.342;2022-11-15T12:32:49;10.05;;;3.53;;
34832;SDS011;55941;50.800;4.342;2022-11-15T12:35:23;9.30;;;3.15;;
34832;SDS011;55941;50.800;4.342;2022-11-15T12:37:57;10.75;;;3.05;;
34832;SDS011;55941;50.800;4.342;2022-11-15T12:53:26;9.27;;;2.40;;
34832;SDS011;55941;50.800;4.342;2022-11-15T12:58:38;12.02;;;2.50;;
34832;SDS011;55941;50.800;4.342;2022-11-15T13:06:44;6.75;;;1.67;;
34832;SDS011;55941;50.800;4.342;2022-11-15T13:12:07;10.82;;;1.77;;
34832;SDS011;55941;50.800;4.342;2022-11-15T13:19:46;6.88;;;1.58;;
34832;SDS011;55941;50.800;4.342;2022-11-15T13:22:17;6.85;;;1.30;;
34832;SDS011;55941;50.800;4.342;2022-11-15T13:25:02;3.65;;;1.33;;
34832;SDS011;55941;50.800;4.342;2022-11-15T13:27:28;5.15;;;1.35;;
34832;SDS011;55941;50.800;4.342;2022-11-15T13:29:54;8.23;;;1.58;;
34832;SDS011;55941;50.800;4.342;2022-11-15T13:32:20;5.03;;;1.58;;
34832;SDS011;55941;50.800;4.342;2022-11-15T13:34:47;6.43;;;1.38;;
34832;SDS011;55941;50.800;4.342;2022-11-15T13:39:46;9.43;;;1.30;;
34832;SDS011;55941;50.800;4.342;2022-11-15T13:42:18;3.33;;;0.95;;
34832;SDS011;55941;50.800;4.342;2022-11-15T13:47:28;6.53;;;1.20;;
34832;SDS011;55941;50.800;4.342;2022-11-15T13:49:58;6.57;;;1.40;;
34832;SDS011;55941;50.800;4.342;2022-11-15T13:52:30;3.70;;;1.40;;
34832;SDS011;55941;50.800;4.342;2022-11-15T13:55:01;3.53;;;1.20;;
34832;SDS011;55941;50.800;4.342;2022-11-15T13:57:45;4.35;;;1.02;;
34832;SDS011;55941;50.800;4.342;2022-11-15T14:02:51;3.38;;;1.90;;
34832;SDS011;55941;50.800;4.342;2022-11-15T14:05:18;9.02;;;1.88;;
34832;SDS011;55941;50.800;4.342;2022-11-15T14:07:55;14.35;;;3.13;;
34832;SDS011;55941;50.800;4.342;2022-11-15T14:10:37;8.10;;;3.10;;
34832;SDS011;55941;50.800;4.342;2022-11-15T14:13:09;5.60;;;2.20;;
34832;SDS011;55941;50.800;4.342;2022-11-15T14:15:51;7.65;;;3.63;;
34832;SDS011;55941;50.800;4.342;2022-11-15T14:21:13;3.70;;;2.05;;
34832;SDS011;55941;50.800;4.342;2022-11-15T14:23:39;4.97;;;2.25;;
34832;SDS011;55941;50.800;4.342;2022-11-15T14:26:05;6.50;;;2.50;;
34832;SDS011;55941;50.800;4.342;2022-11-15T14:28:32;11.60;;;2.67;;
34832;SDS011;55941;50.800;4.342;2022-11-15T14:31:04;4.10;;;2.65;;
34832;SDS011;55941;50.800;4.342;2022-11-15T14:33:38;8.88;;;3.58;;
34832;SDS011;55941;50.800;4.342;2022-11-15T14:36:05;12.27;;;3.42;;
34832;SDS011;55941;50.800;4.342;2022-11-15T14:41:02;4.13;;;2.38;;
34832;SDS011;55941;50.800;4.342;2022-11-15T14:43:28;5.28;;;1.90;;
34832;SDS011;55941;50.800;4.342;2022-11-15T14:45:53;4.65;;;1.92;;
34832;SDS011;55941;50.800;4.342;2022-11-15T14:48:19;6.15;;;1.70;;
34832;SDS011;55941;50.800;4.342;2022-11-15T14:50:45;5.22;;;1.73;;
34832;SDS011;55941;50.800;4.342;2022-11-15T14:53:12;6.55;;;2.35;;
34832;SDS011;55941;50.800;4.342;2022-11-15T14:55:40;4.78;;;1.88;;
34832;SDS011;55941;50.800;4.342;2022-11-15T14:58:06;10.15;;;2.42;;
34832;SDS011;55941;50.800;4.342;2022-11-15T15:00:36;9.82;;;2.75;;
34832;SDS011;55941;50.800;4.342;2022-11-15T15:03:03;10.93;;;3.50;;
34832;SDS011;55941;50.800;4.342;2022-11-15T15:05:31;6.70;;;3.00;;
34832;SDS011;55941;50.800;4.342;2022-11-15T15:07:58;7.05;;;2.95;;
34832;SDS011;55941;50.800;4.342;2022-11-15T15:10:24;7.35;;;3.50;;
34832;SDS011;55941;50.800;4.342;2022-11-15T15:12:52;10.50;;;3.45;;
34832;SDS011;55941;50.800;4.342;2022-11-15T15:15:23;10.35;;;3.05;;
34832;SDS011;55941;50.800;4.342;2022-11-15T15:17:50;6.70;;;3.00;;
34832;SDS011;55941;50.800;4.342;2022-11-15T15:20:16;4.88;;;3.05;;
34832;SDS011;55941;50.800;4.342;2022-11-15T15:22:43;8.07;;;3.17;;
34832;SDS011;55941;50.800;4.342;2022-11-15T15:25:27;8.38;;;3.15;;
34832;SDS011;55941;50.800;4.342;2022-11-15T15:27:58;11.77;;;4.00;;
34832;SDS011;55941;50.800;4.342;2022-11-15T15:30:24;7.97;;;4.03;;
34832;SDS011;55941;50.800;4.342;2022-11-15T15:32:51;9.95;;;3.72;;
34832;SDS011;55941;50.800;4.342;2022-11-15T15:35:18;8.70;;;3.42;;
34832;SDS011;55941;50.800;4.342;2022-11-15T15:37:45;10.30;;;3.33;;
34832;SDS011;55941;50.800;4.342;2022-11-15T15:40:30;7.93;;;3.65;;
34832;SDS011;55941;50.800;4.342;2022-11-15T15:42:57;6.35;;;3.05;;
34832;SDS011;55941;50.800;4.342;2022-11-15T15:45:24;6.13;;;2.92;;
34832;SDS011;55941;50.800;4.342;2022-11-15T15:47:50;5.85;;;3.25;;
34832;SDS011;55941;50.800;4.342;2022-11-15T15:50:31;10.80;;;3.60;;
34832;SDS011;55941;50.800;4.342;2022-11-15T15:52:59;6.25;;;3.35;;
34832;SDS011;55941;50.800;4.342;2022-11-15T15:55:27;6.13;;;3.17;;
34832;SDS011;55941;50.800;4.342;2022-11-15T15:57:53;4.65;;;2.90;;
34832;SDS011;55941;50.800;4.342;2022-11-15T16:00:19;5.13;;;2.85;;
34832;SDS011;55941;50.800;4.342;2022-11-15T16:02:47;10.85;;;3.00;;
34832;SDS011;55941;50.800;4.342;2022-11-15T16:05:13;8.00;;;3.30;;
34832;SDS011;55941;50.800;4.342;2022-11-15T16:07:39;6.65;;;3.22;;
34832;SDS011;55941;50.800;4.342;2022-11-15T16:10:22;10.70;;;3.22;;
34832;SDS011;55941;50.800;4.342;2022-11-15T16:12:53;7.25;;;3.28;;
34832;SDS011;55941;50.800;4.342;2022-11-15T16:15:20;8.00;;;3.15;;
34832;SDS011;55941;50.800;4.342;2022-11-15T16:17:48;5.35;;;3.60;;
34832;SDS011;55941;50.800;4.342;2022-11-15T16:20:27;7.65;;;3.78;;
34832;SDS011;55941;50.800;4.342;2022-11-15T16:22:59;7.22;;;3.40;;
34832;SDS011;55941;50.800;4.342;2022-11-15T16:25:26;9.15;;;3.47;;
34832;SDS011;55941;50.800;4.342;2022-11-15T16:27:52;4.22;;;2.65;;
34832;SDS011;55941;50.800;4.342;2022-11-15T16:30:18;4.82;;;3.00;;
34832;SDS011;55941;50.800;4.342;2022-11-15T16:32:46;7.15;;;3.00;;
34832;SDS011;55941;50.800;4.342;2022-11-15T16:35:14;4.70;;;2.55;;
34832;SDS011;55941;50.800;4.342;2022-11-15T16:37:41;5.07;;;2.38;;
34832;SDS011;55941;50.800;4.342;2022-11-15T16:42:52;6.30;;;3.28;;
34832;SDS011;55941;50.800;4.342;2022-11-15T16:45:17;6.00;;;2.90;;
34832;SDS011;55941;50.800;4.342;2022-11-15T16:47:43;4.57;;;3.20;;
34832;SDS011;55941;50.800;4.342;2022-11-15T16:50:20;7.85;;;2.90;;
34832;SDS011;55941;50.800;4.342;2022-11-15T16:52:51;4.82;;;2.75;;
34832;SDS011;55941;50.800;4.342;2022-11-15T16:55:18;8.88;;;3.15;;
34832;SDS011;55941;50.800;4.342;2022-11-15T16:57:45;7.50;;;3.50;;
34832;SDS011;55941;50.800;4.342;2022-11-15T17:00:13;7.95;;;3.53;;
34832;SDS011;55941;50.800;4.342;2022-11-15T17:02:41;8.23;;;3.53;;
34832;SDS011;55941;50.800;4.342;2022-11-15T17:05:11;5.00;;;3.25;;
34832;SDS011;55941;50.800;4.342;2022-11-15T17:07:38;6.95;;;3.65;;